F/V Roger Christian3 — FUFL — position and weather

sailwx.info

Track history (hours):
 
Tides and Currents Weather Stations Pressure Air Temp Water Temp Dewpoint Dewpoint Depression Visibility Wind Speed Wind Dir Waves Ship Positions

F/V Roger Christian3

Last reported at 2015-May-07 01:24 UTC. Time now 2015-May-07 03:37 UTC.
Position N 43°20' E 004°59'.

Length 24 m; draft 4 m.

Type: Fishing. MMSI: 228173800.

Date/timePositionNaut miles runAvg speedWind from/ knotsBaromVisibWave heightAir tempDewpointWater temp
2015-May-07 01:24N 43°20' E 004°59'4 4.9
2015-May-07 00:33N 43°24' E 004°59'0 0.0
2015-May-06 23:33N 43°24' E 004°59'0 0.0
2015-May-06 22:34N 43°24' E 004°59'0 0.0
2015-May-06 21:33N 43°24' E 004°59'0 0.0
2015-May-06 20:33N 43°24' E 004°59'0 0.0
2015-May-06 19:33N 43°24' E 004°59'0 0.0
2015-May-06 18:33N 43°24' E 004°59'0 0.0
2015-May-06 17:33N 43°24' E 004°59'9 8.6
2015-May-06 16:30N 43°15' E 004°59'4 3.6
2015-May-06 15:29N 43°15' E 005°04'25 2.6
2015-May-06 06:03N 43°00' E 004°38'2 4.5
2015-May-06 05:33N 43°01' E 004°35'  
2015-Apr-30 14:26N 43°18' E 003°47'7 0.4
2015-Apr-29 22:18N 43°24' E 003°42'0 0.0
2015-Apr-29 17:25N 43°24' E 003°42'0 0.4
2015-Apr-29 16:33N 43°24' E 003°42'4 2.2
2015-Apr-29 14:32N 43°20' E 003°44'1211.9
2015-Apr-29 13:33N 43°09' E 003°52'5 5.3
2015-Apr-29 12:33N 43°04' E 003°55'4 4.5
2015-Apr-29 11:33N 43°01' E 003°58'4 4.2
2015-Apr-29 10:33N 42°58' E 004°02'5 4.1
2015-Apr-29 09:17N 42°55' E 004°08'5 4.5
2015-Apr-29 08:16N 42°53' E 004°14'4 4.4
2015-Apr-29 07:19N 42°50' E 004°18'0 0.6
2015-Apr-29 06:30N 42°50' E 004°18'6 4.3
2015-Apr-29 05:14N 42°54' E 004°13'13 5.8
2015-Apr-29 03:04N 43°03' E 004°00'712.6
2015-Apr-29 02:32N 43°08' E 003°55'1111.2
2015-Apr-29 01:33N 43°18' E 003°47'7 0.7
2015-Apr-28 15:30N 43°24' E 003°42'2 1.8
2015-Apr-28 14:30N 43°22' E 003°43'6 6.0
2015-Apr-28 13:31N 43°18' E 003°49'4 3.9
2015-Apr-28 12:30N 43°17' E 003°54'4 4.4
2015-Apr-28 11:30N 43°17' E 004°00'4 4.1
2015-Apr-28 10:27N 43°16' E 004°06'2 1.9
2015-Apr-28 09:11N 43°14' E 004°08'3 4.2
2015-Apr-28 08:28N 43°13' E 004°12'4 4.4
2015-Apr-28 07:28N 43°12' E 004°17'2 1.7
2015-Apr-28 06:30N 43°12' E 004°20'5 4.5
2015-Apr-28 05:29N 43°14' E 004°14'4 4.3
2015-Apr-28 04:32N 43°16' E 004°09'4 4.4
2015-Apr-28 03:32N 43°17' E 004°04'4 4.5
2015-Apr-28 02:33N 43°18' E 003°58'7 7.0
2015-Apr-28 01:32N 43°21' E 003°49'6 1.8
2015-Apr-27 22:09N 43°24' E 003°42'0 0.0
2015-Apr-27 16:27N 43°24' E 003°42'3 3.6
2015-Apr-27 15:30N 43°21' E 003°44'1110.9
2015-Apr-27 14:30N 43°12' E 003°53'7 7.0
2015-Apr-27 13:33N 43°07' E 003°59'4 4.3
2015-Apr-27 12:33N 43°04' E 004°03'5 4.8
2015-Apr-27 11:33N 43°02' E 004°09'3 2.3
2015-Apr-27 10:28N 43°01' E 004°12'4 4.4
2015-Apr-27 09:32N 42°60' E 004°17'4 3.8
2015-Apr-27 08:25N 42°58' E 004°22'2 1.2
2015-Apr-27 06:28N 42°57' E 004°25'5 4.4
2015-Apr-27 05:15N 43°00' E 004°19'25 8.0
2015-Apr-27 02:08N 43°17' E 003°54'  
Track history (hours):
 
Tides and Currents Weather Stations Pressure Air Temp Water Temp Dewpoint Dewpoint Depression Visibility Wind Speed Wind Dir Waves Ship Positions

F/V Roger Christian3

Last reported at 2015-May-07 01:24 UTC. Time now 2015-May-07 03:37 UTC.
Position N 43°20' E 004°59'.

Length 24 m; draft 4 m.

Type: Fishing. MMSI: 228173800.

Date/timePositionNaut miles runAvg speedWind from/ knotsBaromVisibWave heightAir tempDewpointWater temp
2015-May-07 01:24N 43°20' E 004°59'4 4.9
2015-May-07 00:33N 43°24' E 004°59'0 0.0
2015-May-06 23:33N 43°24' E 004°59'0 0.0
2015-May-06 22:34N 43°24' E 004°59'0 0.0
2015-May-06 21:33N 43°24' E 004°59'0 0.0
2015-May-06 20:33N 43°24' E 004°59'0 0.0
2015-May-06 19:33N 43°24' E 004°59'0 0.0
2015-May-06 18:33N 43°24' E 004°59'0 0.0
2015-May-06 17:33N 43°24' E 004°59'9 8.6
2015-May-06 16:30N 43°15' E 004°59'4 3.6
2015-May-06 15:29N 43°15' E 005°04'25 2.6
2015-May-06 06:03N 43°00' E 004°38'2 4.5
2015-May-06 05:33N 43°01' E 004°35'  
2015-Apr-30 14:26N 43°18' E 003°47'7 0.4
2015-Apr-29 22:18N 43°24' E 003°42'0 0.0
2015-Apr-29 17:25N 43°24' E 003°42'0 0.4
2015-Apr-29 16:33N 43°24' E 003°42'4 2.2
2015-Apr-29 14:32N 43°20' E 003°44'1211.9
2015-Apr-29 13:33N 43°09' E 003°52'5 5.3
2015-Apr-29 12:33N 43°04' E 003°55'4 4.5
2015-Apr-29 11:33N 43°01' E 003°58'4 4.2
2015-Apr-29 10:33N 42°58' E 004°02'5 4.1
2015-Apr-29 09:17N 42°55' E 004°08'5 4.5
2015-Apr-29 08:16N 42°53' E 004°14'4 4.4
2015-Apr-29 07:19N 42°50' E 004°18'0 0.6
2015-Apr-29 06:30N 42°50' E 004°18'6 4.3
2015-Apr-29 05:14N 42°54' E 004°13'13 5.8
2015-Apr-29 03:04N 43°03' E 004°00'712.6
2015-Apr-29 02:32N 43°08' E 003°55'1111.2
2015-Apr-29 01:33N 43°18' E 003°47'7 0.7
2015-Apr-28 15:30N 43°24' E 003°42'2 1.8
2015-Apr-28 14:30N 43°22' E 003°43'6 6.0
2015-Apr-28 13:31N 43°18' E 003°49'4 3.9
2015-Apr-28 12:30N 43°17' E 003°54'4 4.4
2015-Apr-28 11:30N 43°17' E 004°00'4 4.1
2015-Apr-28 10:27N 43°16' E 004°06'2 1.9
2015-Apr-28 09:11N 43°14' E 004°08'3 4.2
2015-Apr-28 08:28N 43°13' E 004°12'4 4.4
2015-Apr-28 07:28N 43°12' E 004°17'2 1.7
2015-Apr-28 06:30N 43°12' E 004°20'5 4.5
2015-Apr-28 05:29N 43°14' E 004°14'4 4.3
2015-Apr-28 04:32N 43°16' E 004°09'4 4.4
2015-Apr-28 03:32N 43°17' E 004°04'4 4.5
2015-Apr-28 02:33N 43°18' E 003°58'7 7.0
2015-Apr-28 01:32N 43°21' E 003°49'6 1.8
2015-Apr-27 22:09N 43°24' E 003°42'0 0.0
2015-Apr-27 16:27N 43°24' E 003°42'3 3.6
2015-Apr-27 15:30N 43°21' E 003°44'1110.9
2015-Apr-27 14:30N 43°12' E 003°53'7 7.0
2015-Apr-27 13:33N 43°07' E 003°59'4 4.3
2015-Apr-27 12:33N 43°04' E 004°03'5 4.8
2015-Apr-27 11:33N 43°02' E 004°09'3 2.3
2015-Apr-27 10:28N 43°01' E 004°12'4 4.4
2015-Apr-27 09:32N 42°60' E 004°17'4 3.8
2015-Apr-27 08:25N 42°58' E 004°22'2 1.2
2015-Apr-27 06:28N 42°57' E 004°25'5 4.4
2015-Apr-27 05:15N 43°00' E 004°19'25 8.0
2015-Apr-27 02:08N 43°17' E 003°54'  

Dump ship's entire track history